Time;durP1;ratioP1;P1;durP2;ratioP2;P2;SDS_P1;SDS_P2;PMS_P1;PMS_P2;Temp;Humidity;BMP_temperature;BMP_pressure;BME280_temperature;BME280_humidity;BME280_pressure;Samples;Min_cycle;Max_cycle;Signal;HPM_P1;HPM_P2
2023/06/26 00:01:33;;;;;;;6.75;3.17;;;21.80;99.90;;;;;;5003908;28;21675;-52
2023/06/26 00:04:00;;;;;;;5.63;3.42;;;21.80;99.90;;;;;;4997394;28;20484;-54
2023/06/26 00:06:26;;;;;;;5.00;3.22;;;21.80;99.90;;;;;;5010114;28;20025;-54
2023/06/26 00:08:53;;;;;;;5.60;3.95;;;21.80;99.90;;;;;;4998643;28;20021;-54
2023/06/26 00:11:19;;;;;;;5.00;3.17;;;21.80;99.90;;;;;;5002335;28;20820;-52
2023/06/26 00:13:45;;;;;;;5.13;3.15;;;21.70;99.90;;;;;;4975340;28;20048;-52
2023/06/26 00:16:11;;;;;;;5.65;3.25;;;21.70;99.90;;;;;;4996822;28;20037;-52
2023/06/26 00:18:37;;;;;;;7.57;3.85;;;21.70;99.90;;;;;;4998193;28;20202;-55
2023/06/26 00:21:02;;;;;;;5.63;3.55;;;21.80;99.90;;;;;;5008533;28;20068;-53
2023/06/26 00:23:28;;;;;;;4.85;3.40;;;21.80;99.90;;;;;;4998356;28;20074;-54
2023/06/26 00:25:54;;;;;;;5.43;3.60;;;21.90;99.90;;;;;;4996434;28;20068;-54
2023/06/26 00:28:19;;;;;;;5.30;3.47;;;21.70;99.90;;;;;;4997561;28;20473;-54
2023/06/26 00:30:45;;;;;;;5.72;3.33;;;21.70;99.90;;;;;;4997337;28;20028;-54
2023/06/26 00:33:11;;;;;;;7.22;3.25;;;21.70;99.90;;;;;;4997725;28;20048;-54
2023/06/26 00:35:37;;;;;;;6.78;3.22;;;21.70;99.90;;;;;;4997145;28;20068;-54
2023/06/26 00:38:02;;;;;;;5.13;3.42;;;21.60;99.90;;;;;;5005962;28;20865;-54
2023/06/26 00:40:28;;;;;;;5.70;3.65;;;21.60;99.90;;;;;;4972586;28;20049;-52
2023/06/26 00:42:54;;;;;;;4.32;3.28;;;21.60;99.90;;;;;;4997187;28;20219;-54
2023/06/26 00:45:20;;;;;;;5.68;3.70;;;21.60;99.90;;;;;;4997119;28;20048;-53
2023/06/26 00:47:45;;;;;;;5.80;3.60;;;21.60;99.90;;;;;;4996165;28;20044;-53
2023/06/26 00:50:11;;;;;;;5.63;3.22;;;21.60;99.90;;;;;;4996116;28;21534;-55
2023/06/26 00:52:37;;;;;;;7.68;3.17;;;21.50;99.90;;;;;;4997497;28;20028;-52
2023/06/26 00:55:04;;;;;;;6.22;3.20;;;21.50;99.90;;;;;;4973674;28;20471;-53
2023/06/26 00:57:30;;;;;;;6.28;3.65;;;;;;;;;;5006074;28;20090;-54
2023/06/26 01:11:57;;;;;;;8.93;5.95;;;21.60;99.90;;;;;;5098542;27;20405;-50
2023/06/26 01:14:23;;;;;;;11.80;7.40;;;21.60;99.90;;;;;;5087523;28;20517;-50
2023/06/26 01:16:51;;;;;;;7.90;5.65;;;21.60;99.90;;;;;;5084760;28;20032;-50
2023/06/26 01:19:28;;;;;;;8.82;5.00;;;21.60;99.90;;;;;;5087686;28;20033;-49
2023/06/26 01:22:15;;;;;;;7.03;4.20;;;21.50;99.90;;;;;;5086957;28;20050;-49
2023/06/26 01:24:51;;;;;;;8.60;4.63;;;21.20;99.90;;;;;;5087321;28;20063;-50
2023/06/26 01:27:21;;;;;;;8.00;5.28;;;21.20;99.90;;;;;;5087780;28;20028;-49
2023/06/26 01:29:48;;;;;;;7.07;4.50;;;21.20;99.90;;;;;;5087843;28;20032;-50
2023/06/26 01:32:14;;;;;;;7.78;4.50;;;21.30;99.90;;;;;;5086817;28;20066;-49
2023/06/26 01:34:40;;;;;;;8.88;4.63;;;21.20;99.90;;;;;;5061597;28;20072;-50
2023/06/26 01:37:05;;;;;;;6.90;4.55;;;21.10;99.90;;;;;;5087772;28;20484;-48
2023/06/26 01:39:31;;;;;;;7.43;4.35;;;21.10;99.90;;;;;;5086484;28;20482;-50
2023/06/26 01:41:57;;;;;;;7.18;4.35;;;21.10;99.90;;;;;;5084065;28;20053;-49
2023/06/26 01:44:28;;;;;;;5.25;3.63;;;21.00;99.90;;;;;;5087589;28;20039;-49
2023/06/26 01:47:04;;;;;;;6.03;4.03;;;21.00;99.90;;;;;;5086595;28;20032;-49
2023/06/26 01:49:47;;;;;;;10.40;4.20;;;21.10;99.90;;;;;;5067407;28;20048;-49
2023/06/26 01:52:32;;;;;;;6.40;5.18;;;21.10;99.90;;;;;;5060228;28;20040;-50
2023/06/26 01:55:16;;;;;;;7.68;5.35;;;21.00;99.90;;;;;;5026442;28;20037;-50
2023/06/26 01:57:44;;;;;;;5.63;4.70;;;21.00;99.90;;;;;;5027557;28;20033;-50
2023/06/26 02:00:11;;;;;;;8.38;5.15;;;21.00;99.90;;;;;;5024052;28;20161;-50
2023/06/26 02:02:37;;;;;;;5.32;4.32;;;21.00;99.90;;;;;;4991700;28;20370;-50
2023/06/26 02:05:02;;;;;;;6.13;4.47;;;20.90;99.90;;;;;;5026472;28;20152;-50
2023/06/26 02:07:28;;;;;;;5.18;3.63;;;20.90;99.90;;;;;;5027123;28;20048;-49
2023/06/26 02:09:54;;;;;;;5.65;4.13;;;20.80;99.90;;;;;;5025774;28;20045;-50
2023/06/26 02:12:20;;;;;;;6.28;4.32;;;20.80;99.90;;;;;;5016491;28;20034;-48
2023/06/26 02:14:46;;;;;;;6.22;3.85;;;20.70;99.90;;;;;;5013647;28;20026;-52
2023/06/26 02:17:11;;;;;;;5.95;4.22;;;20.70;99.90;;;;;;5012446;28;20363;-48
2023/06/26 02:19:45;;;;;;;5.82;3.78;;;20.70;99.90;;;;;;5014127;28;20506;-50
2023/06/26 02:22:10;;;;;;;7.85;3.70;;;20.70;99.90;;;;;;5012338;28;20156;-49
2023/06/26 02:24:36;;;;;;;5.53;3.70;;;20.70;99.90;;;;;;5012853;28;20481;-49
2023/06/26 02:27:02;;;;;;;5.15;3.40;;;20.80;99.90;;;;;;5011478;28;20026;-49
2023/06/26 02:29:28;;;;;;;5.45;4.03;;;20.70;99.90;;;;;;5014027;28;20014;-50
2023/06/26 02:31:53;;;;;;;4.95;3.50;;;20.60;99.90;;;;;;5024447;28;20033;-48
2023/06/26 02:34:19;;;;;;;6.28;4.22;;;20.60;99.90;;;;;;5053340;28;20047;-49
2023/06/26 02:36:45;;;;;;;6.20;3.75;;;20.60;99.90;;;;;;5070568;28;20024;-50
2023/06/26 02:39:10;;;;;;;5.63;3.67;;;20.60;99.90;;;;;;5047430;28;20059;-49
2023/06/26 02:41:36;;;;;;;5.90;4.03;;;20.60;99.90;;;;;;5016257;28;20075;-49
2023/06/26 02:44:02;;;;;;;7.00;4.03;;;20.60;99.90;;;;;;5047055;28;20559;-48
2023/06/26 02:46:28;;;;;;;5.80;3.75;;;20.60;99.90;;;;;;5045364;28;20025;-49
2023/06/26 02:48:53;;;;;;;5.60;3.58;;;20.60;99.90;;;;;;5048678;28;20071;-49
2023/06/26 02:51:19;;;;;;;6.75;4.30;;;20.60;99.90;;;;;;5048532;28;20032;-51
2023/06/26 02:53:45;;;;;;;6.25;3.67;;;20.60;99.90;;;;;;5047715;28;20033;-49
2023/06/26 02:56:10;;;;;;;5.75;3.88;;;20.70;99.90;;;;;;5048482;28;20032;-49
2023/06/26 02:58:36;;;;;;;5.95;3.67;;;20.60;99.90;;;;;;5042266;28;20041;-48
2023/06/26 03:01:02;;;;;;;6.30;3.92;;;20.60;99.90;;;;;;4997937;28;20140;-49
2023/06/26 03:03:27;;;;;;;6.75;4.05;;;20.60;99.90;;;;;;4981672;28;20123;-48
2023/06/26 03:05:53;;;;;;;5.43;3.70;;;20.60;99.90;;;;;;5049463;28;20052;-49
2023/06/26 03:08:19;;;;;;;7.20;4.53;;;20.50;99.90;;;;;;5014420;28;20041;-50
2023/06/26 03:10:45;;;;;;;4.88;3.17;;;20.50;99.90;;;;;;5064929;28;20121;-51
2023/06/26 03:13:10;;;;;;;5.82;3.70;;;20.60;99.90;;;;;;5069662;28;20037;-50
2023/06/26 03:15:36;;;;;;;8.85;4.97;;;20.50;99.90;;;;;;5072256;28;20033;-49
2023/06/26 03:18:02;;;;;;;6.32;4.38;;;20.50;99.90;;;;;;5020476;28;20068;-50
2023/06/26 03:20:28;;;;;;;7.43;4.40;;;20.50;99.90;;;;;;5071553;28;20068;-49
2023/06/26 03:22:53;;;;;;;5.20;3.60;;;20.50;99.90;;;;;;5049314;28;20562;-51
2023/06/26 03:25:19;;;;;;;7.43;4.47;;;20.50;99.90;;;;;;5071371;28;20052;-49
2023/06/26 03:27:45;;;;;;;5.75;3.95;;;20.50;99.90;;;;;;5071622;28;20035;-50
2023/06/26 03:30:11;;;;;;;5.72;3.95;;;20.50;99.90;;;;;;5047603;28;20044;-49
2023/06/26 03:32:37;;;;;;;7.13;4.43;;;20.50;99.90;;;;;;5053201;28;20056;-49
2023/06/26 03:35:03;;;;;;;7.63;3.97;;;20.50;99.90;;;;;;5071433;28;20136;-50
2023/06/26 03:37:29;;;;;;;4.80;3.50;;;20.60;99.90;;;;;;5071169;28;20135;-49
2023/06/26 03:39:55;;;;;;;8.65;4.65;;;20.50;99.90;;;;;;5072174;28;20043;-49
2023/06/26 03:42:20;;;;;;;6.00;3.88;;;20.50;99.90;;;;;;5071551;28;20366;-50
2023/06/26 03:44:46;;;;;;;6.60;4.13;;;20.50;99.90;;;;;;5071754;28;20048;-52
2023/06/26 03:47:12;;;;;;;7.03;4.57;;;20.50;99.90;;;;;;5071463;28;20032;-50
2023/06/26 03:49:37;;;;;;;5.75;3.38;;;20.50;99.90;;;;;;5069287;28;20027;-51
2023/06/26 03:52:03;;;;;;;8.05;3.85;;;20.50;99.90;;;;;;5051688;28;20043;-50
2023/06/26 03:54:29;;;;;;;7.30;3.72;;;20.60;99.90;;;;;;5035352;28;20037;-49
2023/06/26 03:56:54;;;;;;;5.72;3.80;;;20.60;99.90;;;;;;5051909;28;20032;-50
2023/06/26 03:59:21;;;;;;;6.90;4.15;;;20.70;99.90;;;;;;5056090;28;20059;-50
2023/06/26 04:01:46;;;;;;;6.30;4.57;;;20.70;99.90;;;;;;5071153;28;20034;-52
2023/06/26 04:04:12;;;;;;;6.10;3.90;;;20.70;99.90;;;;;;5041644;28;20036;-49
2023/06/26 04:06:38;;;;;;;8.43;4.25;;;20.80;99.90;;;;;;5069865;28;20136;-49
2023/06/26 04:09:04;;;;;;;10.65;4.57;;;21.00;99.90;;;;;;5071626;28;20068;-49
2023/06/26 04:11:31;;;;;;;8.57;4.22;;;21.00;99.90;;;;;;5067559;28;20469;-48
2023/06/26 04:13:56;;;;;;;5.47;3.78;;;21.00;99.90;;;;;;5070787;28;20028;-49
2023/06/26 04:16:25;;;;;;;6.53;4.10;;;21.00;99.90;;;;;;5068646;28;20419;-50
2023/06/26 04:18:52;;;;;;;6.07;3.83;;;21.00;99.90;;;;;;5047769;28;20032;-49
2023/06/26 04:21:18;;;;;;;6.13;3.70;;;21.10;99.90;;;;;;5069032;28;20032;-49
2023/06/26 04:23:44;;;;;;;7.45;4.20;;;21.10;99.90;;;;;;5051775;28;20033;-49
2023/06/26 04:26:13;;;;;;;6.22;4.13;;;21.10;99.90;;;;;;5042477;28;20036;-50
2023/06/26 04:28:38;;;;;;;6.75;4.45;;;21.20;99.90;;;;;;5050890;28;20091;-50
2023/06/26 04:31:04;;;;;;;7.90;3.92;;;21.20;99.90;;;;;;5066551;28;20523;-51
2023/06/26 04:33:30;;;;;;;5.65;3.50;;;21.10;99.90;;;;;;5066605;28;20034;-49
2023/06/26 04:35:56;;;;;;;6.07;3.65;;;21.20;99.90;;;;;;5070376;28;20055;-50
2023/06/26 04:38:21;;;;;;;6.32;4.05;;;21.20;99.90;;;;;;5050334;28;20080;-49
2023/06/26 04:40:48;;;;;;;5.05;3.30;;;21.20;99.90;;;;;;5049632;28;20037;-49
2023/06/26 04:43:14;;;;;;;6.28;3.85;;;21.40;99.90;;;;;;5067376;28;20034;-50
2023/06/26 04:45:39;;;;;;;7.03;4.20;;;21.30;99.90;;;;;;5067085;28;20032;-49
2023/06/26 04:48:09;;;;;;;10.32;4.28;;;21.40;99.90;;;;;;5067559;28;20032;-50
2023/06/26 04:50:35;;;;;;;6.50;3.75;;;21.40;99.90;;;;;;5065745;28;20037;-49
2023/06/26 04:53:01;;;;;;;6.10;4.25;;;21.40;99.90;;;;;;5021464;28;20086;-48
2023/06/26 04:55:28;;;;;;;5.85;3.90;;;21.50;99.90;;;;;;5048924;28;20036;-48
2023/06/26 04:57:53;;;;;;;8.38;3.80;;;21.50;99.90;;;;;;5066243;28;20066;-49
2023/06/26 05:00:19;;;;;;;6.40;3.90;;;21.60;99.90;;;;;;5067880;28;20115;-50
2023/06/26 05:02:45;;;;;;;6.45;3.85;;;21.60;99.90;;;;;;5070902;28;20028;-50
2023/06/26 05:05:11;;;;;;;4.90;3.78;;;21.50;99.90;;;;;;5066342;28;20375;-48
2023/06/26 05:07:37;;;;;;;5.97;3.67;;;21.70;99.90;;;;;;5064640;28;20029;-49
2023/06/26 05:10:04;;;;;;;7.22;4.30;;;21.70;99.90;;;;;;5068921;28;20056;-49
2023/06/26 05:12:29;;;;;;;6.47;4.40;;;21.90;99.90;;;;;;5008962;28;20040;-48
2023/06/26 05:14:55;;;;;;;9.02;4.50;;;22.00;99.90;;;;;;5070104;28;20032;-48
2023/06/26 05:17:21;;;;;;;6.15;3.90;;;22.00;99.90;;;;;;5068012;28;20112;-49
2023/06/26 05:19:46;;;;;;;8.32;4.03;;;22.10;99.90;;;;;;5067708;28;20036;-53
2023/06/26 05:22:17;;;;;;;8.13;3.85;;;22.20;99.90;;;;;;5014612;28;20095;-50
2023/06/26 05:24:46;;;;;;;5.10;3.47;;;22.20;99.90;;;;;;5027098;28;20038;-50
2023/06/26 05:27:19;;;;;;;8.10;3.83;;;22.10;99.90;;;;;;5066956;28;20029;-49
2023/06/26 05:29:45;;;;;;;7.28;4.78;;;22.10;99.90;;;;;;5049958;28;20044;-51
2023/06/26 05:32:13;;;;;;;7.40;4.18;;;22.10;99.90;;;;;;5031031;28;20044;-52
2023/06/26 05:34:39;;;;;;;5.13;3.55;;;22.00;99.90;;;;;;5064656;28;20040;-51
2023/06/26 05:37:06;;;;;;;7.75;4.60;;;22.10;99.90;;;;;;5068367;28;20368;-51
2023/06/26 05:39:32;;;;;;;8.50;4.57;;;22.20;99.90;;;;;;5048107;28;20116;-49
2023/06/26 05:41:58;;;;;;;6.80;4.63;;;22.20;99.90;;;;;;5047289;28;20462;-48
2023/06/26 05:44:24;;;;;;;7.50;4.53;;;22.30;99.90;;;;;;5027324;28;20051;-48
2023/06/26 05:46:49;;;;;;;8.05;3.53;;;22.50;99.90;;;;;;5068034;28;20064;-50
2023/06/26 05:49:15;;;;;;;6.28;3.95;;;22.40;99.90;;;;;;5073470;28;20491;-49
2023/06/26 05:51:41;;;;;;;6.28;4.10;;;22.60;99.90;;;;;;5071686;28;20029;-51
2023/06/26 05:54:07;;;;;;;6.03;4.05;;;22.80;99.90;;;;;;5074184;28;20040;-51
2023/06/26 05:56:33;;;;;;;7.57;4.28;;;22.90;99.90;;;;;;5073350;28;20028;-48
2023/06/26 05:58:59;;;;;;;6.13;3.90;;;22.90;99.90;;;;;;5045781;28;20516;-51
2023/06/26 06:01:25;;;;;;;8.52;4.05;;;23.10;99.90;;;;;;5047973;28;20066;-52
2023/06/26 06:03:50;;;;;;;7.88;4.35;;;23.20;99.90;;;;;;5073311;28;20914;-52
2023/06/26 06:06:16;;;;;;;8.68;4.60;;;23.10;99.90;;;;;;5054010;28;20032;-51
2023/06/26 06:08:42;;;;;;;8.55;4.05;;;23.10;99.90;;;;;;5073429;28;20024;-51
2023/06/26 06:11:08;;;;;;;5.20;3.60;;;23.20;99.90;;;;;;5066743;28;20716;-52
2023/06/26 06:13:33;;;;;;;7.18;3.72;;;23.20;99.90;;;;;;5073831;28;20024;-50
2023/06/26 06:15:59;;;;;;;5.30;4.10;;;23.30;99.90;;;;;;5073674;28;20036;-49
2023/06/26 06:18:25;;;;;;;7.05;3.90;;;23.40;99.90;;;;;;5073468;28;20029;-50
2023/06/26 06:20:51;;;;;;;6.18;3.92;;;23.40;99.90;;;;;;5052069;28;20060;-48
2023/06/26 06:23:16;;;;;;;5.00;3.60;;;23.50;99.90;;;;;;5073242;28;20024;-53
2023/06/26 06:25:42;;;;;;;5.13;3.55;;;23.50;99.90;;;;;;5068771;28;20036;-50
2023/06/26 06:28:08;;;;;;;6.72;4.60;;;23.60;99.90;;;;;;5073527;28;20035;-48
2023/06/26 06:30:33;;;;;;;5.15;3.60;;;23.50;99.90;;;;;;5073270;28;20036;-53
2023/06/26 06:32:59;;;;;;;7.75;4.10;;;23.60;99.90;;;;;;5072446;28;20028;-51
2023/06/26 06:35:25;;;;;;;5.50;3.50;;;23.80;99.90;;;;;;5072318;28;20028;-48
2023/06/26 06:37:50;;;;;;;5.40;3.15;;;23.80;99.90;;;;;;5071081;28;20028;-50
2023/06/26 06:40:16;;;;;;;5.20;3.47;;;23.90;99.90;;;;;;5035560;28;20127;-51
2023/06/26 06:42:42;;;;;;;5.38;3.65;;;24.00;99.90;;;;;;5072031;28;20106;-51
2023/06/26 06:45:09;;;;;;;6.05;3.67;;;24.00;99.90;;;;;;5071603;28;20026;-52
2023/06/26 06:47:35;;;;;;;6.43;4.03;;;24.10;99.90;;;;;;5053566;28;20170;-54
2023/06/26 06:50:07;;;;;;;5.20;3.65;;;24.10;99.90;;;;;;5071188;28;20119;-52
2023/06/26 06:52:38;;;;;;;8.07;3.80;;;23.80;99.90;;;;;;5072429;28;20443;-46
2023/06/26 06:55:08;;;;;;;5.95;4.13;;;24.30;99.90;;;;;;5068753;28;20379;-53
2023/06/26 06:57:35;;;;;;;5.43;3.25;;;;;;;;;;5045341;28;20407;-51
2023/06/26 07:00:04;;;;;;;8.35;3.83;;;;;;;;;;5069452;28;20036;-51
2023/06/26 07:02:30;;;;;;;7.70;4.43;;;24.70;99.90;;;;;;5072997;28;20035;-52
2023/06/26 07:04:56;;;;;;;6.22;3.83;;;24.70;99.90;;;;;;5067429;28;20037;-47
2023/06/26 07:07:21;;;;;;;8.73;3.45;;;24.80;99.90;;;;;;5058419;28;20040;-52
2023/06/26 07:09:47;;;;;;;5.18;3.50;;;25.00;99.90;;;;;;5072376;28;20128;-49
2023/06/26 07:12:13;;;;;;;5.05;3.15;;;25.00;99.90;;;;;;5039443;28;20042;-48
2023/06/26 07:14:39;;;;;;;8.73;3.85;;;;;;;;;;5037605;28;20041;-51
2023/06/26 07:17:05;;;;;;;5.15;3.65;;;25.30;99.90;;;;;;5039761;28;20033;-48
2023/06/26 07:19:30;;;;;;;4.93;3.22;;;25.20;99.90;;;;;;4995384;28;20076;-51
2023/06/26 07:21:56;;;;;;;6.28;3.72;;;25.30;99.90;;;;;;5042910;28;20623;-50
2023/06/26 07:24:22;;;;;;;4.68;3.05;;;;;;;;;;5043259;28;20086;-52
2023/06/26 07:26:48;;;;;;;6.28;3.35;;;25.70;99.90;;;;;;5041561;28;20029;-53
2023/06/26 07:29:14;;;;;;;4.88;3.35;;;25.70;99.90;;;;;;5009871;28;20061;-50
2023/06/26 07:31:40;;;;;;;5.53;3.15;;;;;;;;;;5027633;28;20128;-49
2023/06/26 07:34:05;;;;;;;5.20;3.40;;;25.90;99.90;;;;;;5039403;28;20079;-46
2023/06/26 07:36:32;;;;;;;4.93;3.40;;;;;;;;;;5041525;28;20557;-51
2023/06/26 07:38:57;;;;;;;6.18;3.92;;;26.30;99.90;;;;;;4963341;28;20048;-50
2023/06/26 07:41:23;;;;;;;6.70;3.00;;;;;;;;;;5009098;28;20045;-51
2023/06/26 07:43:49;;;;;;;4.55;3.17;;;26.20;99.90;;;;;;5059059;28;20045;-49
2023/06/26 07:46:15;;;;;;;5.55;2.78;;;26.30;99.90;;;;;;5071827;28;20020;-51
2023/06/26 07:48:41;;;;;;;3.50;2.83;;;26.30;99.90;;;;;;5069931;28;20098;-47
2023/06/26 07:51:06;;;;;;;7.97;2.83;;;26.30;99.90;;;;;;5043964;28;20041;-48
2023/06/26 07:53:32;;;;;;;4.60;2.80;;;;;;;;;;5049959;28;20044;-49
2023/06/26 07:55:58;;;;;;;4.57;3.20;;;26.90;99.90;;;;;;5069083;28;20244;-51
2023/06/26 07:58:25;;;;;;;4.30;2.97;;;27.00;99.90;;;;;;5049525;28;20094;-49
2023/06/26 08:00:51;;;;;;;3.88;2.50;;;27.00;99.90;;;;;;5050942;28;20052;-49
2023/06/26 08:03:17;;;;;;;4.10;2.67;;;27.00;99.90;;;;;;5040034;28;20051;-51
2023/06/26 08:05:42;;;;;;;4.55;3.03;;;27.10;99.90;;;;;;5052676;28;20108;-50
2023/06/26 08:08:08;;;;;;;4.53;3.00;;;27.40;99.90;;;;;;5051477;28;20044;-47
2023/06/26 08:10:34;;;;;;;4.25;3.05;;;;;;;;;;5010744;28;20099;-48
2023/06/26 08:13:00;;;;;;;3.45;2.45;;;;;;;;;;5005502;28;20488;-50
2023/06/26 08:15:26;;;;;;;3.83;2.60;;;;;;;;;;5044985;28;20041;-49
2023/06/26 08:17:52;;;;;;;3.38;2.10;;;;;;;;;;5028430;28;20083;-50
2023/06/26 08:20:19;;;;;;;4.72;2.70;;;;;;;;;;5028749;28;20033;-51
2023/06/26 08:22:47;;;;;;;5.00;2.80;;;;;;;;;;5031112;28;20052;-48
2023/06/26 08:25:13;;;;;;;4.88;2.05;;;28.10;99.90;;;;;;5029738;28;20049;-50
2023/06/26 08:27:39;;;;;;;3.78;2.53;;;28.20;99.90;;;;;;5030034;28;20399;-50
2023/06/26 08:30:05;;;;;;;4.40;2.65;;;;;;;;;;5030597;28;20048;-48
2023/06/26 08:32:31;;;;;;;4.95;2.33;;;28.30;99.90;;;;;;5044983;28;20044;-49
2023/06/26 08:34:56;;;;;;;4.20;2.50;;;28.30;99.90;;;;;;5026996;28;20037;-51
2023/06/26 08:37:22;;;;;;;3.63;2.28;;;28.40;99.90;;;;;;4979385;28;20033;-52
2023/06/26 08:39:49;;;;;;;4.85;2.60;;;28.30;99.90;;;;;;5030907;28;20037;-49
2023/06/26 08:42:15;;;;;;;3.60;2.60;;;;;;;;;;5030621;28;20480;-48
2023/06/26 08:44:41;;;;;;;4.00;2.67;;;28.60;99.90;;;;;;5030765;28;20026;-46
2023/06/26 08:47:07;;;;;;;3.63;2.05;;;;;;;;;;5030738;28;20030;-50
2023/06/26 08:49:50;;;;;;;3.25;2.35;;;;;;;;;;5030672;28;20033;-54
2023/06/26 08:52:29;;;;;;;3.10;2.53;;;;;;;;;;4982487;28;20042;-49
2023/06/26 08:54:56;;;;;;;5.38;2.08;;;;;;;;;;5059226;28;20054;-50
2023/06/26 08:57:23;;;;;;;3.50;2.28;;;;;;;;;;5043309;28;20041;-50
2023/06/26 08:59:50;;;;;;;3.65;2.33;;;;;;;;;;5030398;28;20068;-52
2023/06/26 09:02:16;;;;;;;4.97;2.58;;;;;;;;;;5027749;28;20085;-54
2023/06/26 09:04:42;;;;;;;2.97;2.40;;;;;;;;;;5026782;28;20033;-49
2023/06/26 09:07:09;;;;;;;3.25;2.25;;;;;;;;;;5025256;28;20034;-53
2023/06/26 09:09:35;;;;;;;3.83;2.60;;;;;;;;;;5031491;28;20029;-50
2023/06/26 09:12:02;;;;;;;2.88;2.15;;;;;;;;;;5050881;28;20048;-53
2023/06/26 09:14:29;;;;;;;2.58;1.98;;;;;;;;;;5070493;28;20038;-52
2023/06/26 09:16:55;;;;;;;2.85;2.10;;;;;;;;;;5046730;28;20387;-48
2023/06/26 09:19:21;;;;;;;3.10;2.50;;;;;;;;;;5064050;28;20048;-55
2023/06/26 09:21:50;;;;;;;4.75;2.60;;;;;;;;;;5060916;28;20028;-55
2023/06/26 09:24:16;;;;;;;3.50;2.35;;;;;;;;;;5067265;28;20032;-57
2023/06/26 09:26:43;;;;;;;2.50;1.92;;;;;;;;;;5066568;28;20024;-50
2023/06/26 09:29:10;;;;;;;2.83;2.10;;;;;;;;;;5074563;28;20067;-51
2023/06/26 09:31:40;;;;;;;3.38;2.10;;;;;;;;;;5071411;28;20139;-54
2023/06/26 09:34:06;;;;;;;2.78;2.10;;;;;;;;;;5071369;28;20488;-54
2023/06/26 09:36:35;;;;;;;7.60;2.53;;;;;;;;;;5074218;28;20416;-50
2023/06/26 09:39:08;;;;;;;3.88;3.00;;;;;;;;;;5074401;28;20036;-53
2023/06/26 09:41:35;;;;;;;3.63;2.58;;;;;;;;;;5068663;28;20032;-53
2023/06/26 09:44:02;;;;;;;3.28;2.50;;;;;;;;;;5073181;28;20119;-50
2023/06/26 09:46:29;;;;;;;4.78;2.13;;;;;;;;;;5074093;28;20025;-50
2023/06/26 09:49:04;;;;;;;3.70;2.20;;;;;;;;;;5074079;28;20361;-49
2023/06/26 09:51:37;;;;;;;4.15;2.30;;;;;;;;;;5073513;28;20024;-51
2023/06/26 09:54:04;;;;;;;3.45;2.20;;;;;;;;;;5048963;28;20077;-51
2023/06/26 09:56:30;;;;;;;4.15;2.45;;;;;;;;;;5073381;28;20024;-50
2023/06/26 09:58:57;;;;;;;5.78;2.38;;;;;;;;;;5073463;28;20029;-53
2023/06/26 10:01:24;;;;;;;3.95;2.70;;;;;;;;;;5071524;28;20410;-54
2023/06/26 10:03:50;;;;;;;3.65;1.88;;;;;;;;;;5074076;28;20033;-48
2023/06/26 10:06:19;;;;;;;2.40;1.95;;;;;;;;;;5018371;28;20126;-48
2023/06/26 10:08:46;;;;;;;2.63;2.17;;;;;;;;;;5045180;28;20043;-47
2023/06/26 10:11:16;;;;;;;3.50;2.22;;;;;;;;;;5014440;28;20045;-49
2023/06/26 10:13:46;;;;;;;4.93;2.03;;;;;;;;;;5022678;28;20456;-48
2023/06/26 10:16:12;;;;;;;2.72;2.03;;;;;;;;;;5045224;28;20088;-49
2023/06/26 10:18:39;;;;;;;4.88;1.85;;;;;;;;;;5048943;28;20040;-47
2023/06/26 10:21:07;;;;;;;2.55;1.80;;;;;;;;;;5015454;28;20064;-50
2023/06/26 10:23:33;;;;;;;4.53;2.03;;;;;;;;;;5049843;28;20040;-46
2023/06/26 10:26:01;;;;;;;3.53;1.92;;;;;;;;;;5045206;28;20733;-47
2023/06/26 10:28:28;;;;;;;4.35;2.45;;;;;;;;;;5043877;28;20107;-46
2023/06/26 10:30:55;;;;;;;4.85;2.20;;;;;;;;;;5046736;28;20036;-47
2023/06/26 10:33:22;;;;;;;4.22;2.35;;;30.60;99.90;;;;;;5048600;28;20032;-45
2023/06/26 10:35:49;;;;;;;3.03;2.13;;;;;;;;;;4998826;28;20045;-45
2023/06/26 10:38:15;;;;;;;4.00;1.85;;;;;;;;;;5069673;28;20044;-45
2023/06/26 10:40:41;;;;;;;3.47;2.08;;;;;;;;;;5070768;28;20242;-47
2023/06/26 10:43:08;;;;;;;2.85;2.35;;;;;;;;;;5073597;28;20031;-48
2023/06/26 10:45:37;;;;;;;2.78;2.00;;;;;;;;;;5074471;28;20553;-46
2023/06/26 10:48:04;;;;;;;3.00;2.10;;;;;;;;;;5049358;28;20040;-48
2023/06/26 10:50:31;;;;;;;3.10;2.13;;;;;;;;;;5064889;28;20086;-44
2023/06/26 10:53:20;;;;;;;3.90;2.58;;;;;;;;;;5065001;28;20119;-44
2023/06/26 10:56:03;;;;;;;5.32;2.42;;;;;;;;;;5066049;28;20048;-47
2023/06/26 10:58:33;;;;;;;3.28;2.00;;;;;;;;;;5066138;28;20032;-45
2023/06/26 11:01:17;;;;;;;3.47;2.33;;;;;;;;;;5067550;28;20040;-47
2023/06/26 11:04:03;;;;;;;2.60;2.17;;;;;;;;;;5049207;28;20040;-47
2023/06/26 11:06:30;;;;;;;4.00;2.40;;;;;;;;;;5053238;28;20040;-44
2023/06/26 11:09:05;;;;;;;2.97;2.15;;;32.30;99.90;;;;;;5072179;28;20141;-44
2023/06/26 11:11:58;;;;;;;2.35;2.03;;;32.00;99.90;;;;;;5067430;28;20049;-44
2023/06/26 11:14:27;;;;;;;3.35;2.20;;;31.60;99.90;;;;;;5071847;28;20081;-47
2023/06/26 11:16:55;;;;;;;3.80;2.20;;;31.10;99.90;;;;;;5066309;28;20029;-45
2023/06/26 11:19:21;;;;;;;3.90;2.40;;;31.40;99.90;;;;;;5068868;28;20024;-46
2023/06/26 11:21:47;;;;;;;4.63;2.20;;;31.50;99.90;;;;;;5066525;28;20480;-45
2023/06/26 11:24:13;;;;;;;3.38;2.58;;;31.50;99.90;;;;;;5065118;28;20027;-45
2023/06/26 11:26:40;;;;;;;3.00;2.30;;;31.40;99.90;;;;;;5065505;28;20047;-45
2023/06/26 11:29:06;;;;;;;2.50;2.00;;;31.10;99.90;;;;;;5067030;28;20064;-46
2023/06/26 11:31:37;;;;;;;3.95;2.42;;;30.80;99.90;;;;;;5062760;28;20392;-44
2023/06/26 11:34:11;;;;;;;3.45;2.50;;;30.80;99.90;;;;;;5068159;28;20059;-46
2023/06/26 11:36:38;;;;;;;4.38;2.40;;;31.20;99.90;;;;;;5066540;28;20044;-46
2023/06/26 11:39:06;;;;;;;3.35;2.03;;;;;;;;;;5059853;28;20383;-46
2023/06/26 11:41:34;;;;;;;2.88;2.42;;;30.50;99.90;;;;;;5065696;28;20210;-46
2023/06/26 11:44:04;;;;;;;3.92;2.20;;;31.20;99.90;;;;;;5066562;28;20031;-44
2023/06/26 11:46:31;;;;;;;4.88;2.17;;;;;;;;;;5068081;28;20079;-46
2023/06/26 11:48:57;;;;;;;3.25;2.30;;;;;;;;;;5034770;28;20040;-47
2023/06/26 11:51:23;;;;;;;4.82;2.33;;;;;;;;;;5067784;28;20036;-47
2023/06/26 11:53:49;;;;;;;2.72;2.05;;;32.50;98.60;;;;;;5065756;28;20032;-46
2023/06/26 11:56:16;;;;;;;3.58;1.90;;;32.10;98.50;;;;;;5065802;28;20035;-45
2023/06/26 11:59:00;;;;;;;3.00;1.90;;;32.00;98.60;;;;;;5049865;28;20036;-46
2023/06/26 12:01:27;;;;;;;3.50;1.70;;;32.00;97.60;;;;;;5070486;28;20434;-47
2023/06/26 12:03:58;;;;;;;3.75;2.47;;;31.80;97.60;;;;;;5070424;28;20036;-45
2023/06/26 12:06:24;;;;;;;3.47;2.50;;;31.60;98.70;;;;;;5071016;28;20033;-45
2023/06/26 12:08:50;;;;;;;3.47;2.33;;;31.40;99.00;;;;;;5067290;28;20125;-44
2023/06/26 12:11:19;;;;;;;7.07;3.97;;;31.30;99.90;;;;;;5071236;28;20056;-45
2023/06/26 12:13:46;;;;;;;4.22;2.42;;;31.30;99.90;;;;;;5031499;28;20139;-46
2023/06/26 12:16:13;;;;;;;2.90;1.98;;;31.00;99.00;;;;;;5070779;28;20071;-47
2023/06/26 12:18:43;;;;;;;5.55;2.53;;;30.80;98.50;;;;;;5068264;28;20071;-46
2023/06/26 12:21:27;;;;;;;2.92;2.33;;;30.60;99.10;;;;;;5065752;28;20102;-45
2023/06/26 12:23:59;;;;;;;3.75;2.10;;;30.30;98.20;;;;;;5070787;28;20051;-46
2023/06/26 12:26:26;;;;;;;3.72;2.20;;;30.40;98.00;;;;;;5071065;28;20079;-45
2023/06/26 12:28:52;;;;;;;3.92;2.40;;;30.50;98.20;;;;;;5062130;28;20075;-47
2023/06/26 12:31:21;;;;;;;3.03;2.42;;;30.90;98.20;;;;;;5070777;28;20044;-45
2023/06/26 12:33:47;;;;;;;2.35;2.00;;;31.20;99.00;;;;;;5069836;28;20075;-46
2023/06/26 12:36:13;;;;;;;2.97;2.05;;;;;;;;;;5066306;28;20515;-45
2023/06/26 12:38:40;;;;;;;3.58;2.50;;;;;;;;;;5070158;28;20050;-45
2023/06/26 12:41:13;;;;;;;5.03;2.42;;;32.40;99.90;;;;;;5070925;28;20347;-45
2023/06/26 12:43:39;;;;;;;2.95;2.28;;;;;;;;;;5068586;28;21470;-45
2023/06/26 12:46:06;;;;;;;3.70;2.20;;;;;;;;;;5070433;28;20056;-45
2023/06/26 12:48:43;;;;;;;3.22;2.42;;;;;;;;;;5070454;28;20024;-46
2023/06/26 12:51:17;;;;;;;5.15;2.00;;;;;;;;;;5070801;28;20043;-45
2023/06/26 12:53:43;;;;;;;5.50;2.58;;;;;;;;;;5070088;28;20037;-45
2023/06/26 12:56:10;;;;;;;4.75;2.75;;;31.10;99.90;;;;;;5069702;28;20111;-46
2023/06/26 12:58:37;;;;;;;2.85;2.00;;;31.30;99.90;;;;;;5069645;28;20426;-46
2023/06/26 13:01:16;;;;;;;7.20;2.28;;;31.70;99.90;;;;;;5069710;28;20071;-46
2023/06/26 13:03:42;;;;;;;6.80;2.78;;;31.40;99.90;;;;;;5070183;28;20063;-45
2023/06/26 13:06:08;;;;;;;2.92;2.30;;;31.30;99.90;;;;;;5069948;28;20064;-45
2023/06/26 13:08:34;;;;;;;3.25;2.22;;;31.30;99.90;;;;;;5071246;28;20479;-45
2023/06/26 13:11:00;;;;;;;2.42;2.03;;;;;;;;;;5070071;28;20056;-45
2023/06/26 13:13:27;;;;;;;4.15;2.83;;;30.90;99.90;;;;;;5067989;28;20483;-45
2023/06/26 13:15:53;;;;;;;3.75;2.30;;;;;;;;;;5069423;28;20391;-45
2023/06/26 13:18:19;;;;;;;2.80;1.90;;;;;;;;;;5070566;28;20059;-46
2023/06/26 13:20:45;;;;;;;3.88;2.13;;;;;;;;;;5051233;28;20059;-46
2023/06/26 13:23:11;;;;;;;3.63;2.42;;;;;;;;;;5051836;28;20040;-46
2023/06/26 13:25:37;;;;;;;3.72;2.05;;;;;;;;;;5070339;28;20090;-45
2023/06/26 13:28:03;;;;;;;2.75;2.22;;;;;;;;;;5070764;28;20024;-46
2023/06/26 13:30:30;;;;;;;5.00;2.42;;;;;;;;;;5051118;28;20135;-45